sensor_id;sensor_type;location;lat;lon;timestamp;pressure;altitude;pressure_sealevel;temperature;humidity
76746;BME280;65671;49.976;20.038;2023-05-07T00:02:02;98079.22;;;10.34;95.85
76746;BME280;65671;49.976;20.038;2023-05-07T00:04:29;98078.84;;;10.29;96.81
76746;BME280;65671;49.976;20.038;2023-05-07T00:07:01;98085.41;;;10.28;97.49
76746;BME280;65671;49.976;20.038;2023-05-07T00:09:26;98086.56;;;10.34;96.51
76746;BME280;65671;49.976;20.038;2023-05-07T00:11:52;98080.00;;;10.31;96.96
76746;BME280;65671;49.976;20.038;2023-05-07T00:14:18;98086.19;;;10.28;97.37
76746;BME280;65671;49.976;20.038;2023-05-07T00:16:43;98087.34;;;10.34;96.46
76746;BME280;65671;49.976;20.038;2023-05-07T00:19:09;98084.25;;;10.46;95.17
76746;BME280;65671;49.976;20.038;2023-05-07T00:21:34;98087.72;;;10.36;95.87
76746;BME280;65671;49.976;20.038;2023-05-07T00:24:00;98089.66;;;10.29;96.72
76746;BME280;65671;49.976;20.038;2023-05-07T00:26:25;98088.91;;;10.39;96.13
76746;BME280;65671;49.976;20.038;2023-05-07T00:28:51;98087.34;;;10.41;95.70
76746;BME280;65671;49.976;20.038;2023-05-07T00:31:17;98098.16;;;10.38;95.77
76746;BME280;65671;49.976;20.038;2023-05-07T00:33:42;98091.59;;;10.35;95.98
76746;BME280;65671;49.976;20.038;2023-05-07T00:36:07;98096.63;;;10.47;96.64
76746;BME280;65671;49.976;20.038;2023-05-07T00:38:33;98095.06;;;10.29;97.18
76746;BME280;65671;49.976;20.038;2023-05-07T00:40:59;98095.06;;;10.25;98.09
76746;BME280;65671;49.976;20.038;2023-05-07T00:43:25;98100.06;;;10.05;99.54
76746;BME280;65671;49.976;20.038;2023-05-07T00:45:51;98103.88;;;9.87;100.00
76746;BME280;65671;49.976;20.038;2023-05-07T00:48:17;98105.41;;;9.74;100.00
76746;BME280;65671;49.976;20.038;2023-05-07T00:50:43;98108.47;;;9.65;100.00
76746;BME280;65671;49.976;20.038;2023-05-07T00:53:09;98101.88;;;9.56;100.00
76746;BME280;65671;49.976;20.038;2023-05-07T00:55:35;98105.38;;;9.63;100.00
76746;BME280;65671;49.976;20.038;2023-05-07T00:58:01;98110.75;;;9.52;100.00
76746;BME280;65671;49.976;20.038;2023-05-07T01:00:27;98108.44;;;9.47;100.00
76746;BME280;65671;49.976;20.038;2023-05-07T01:02:53;98098.38;;;9.44;100.00
76746;BME280;65671;49.976;20.038;2023-05-07T01:05:20;98106.13;;;9.57;100.00
76746;BME280;65671;49.976;20.038;2023-05-07T01:07:48;98109.94;;;9.41;100.00
76746;BME280;65671;49.976;20.038;2023-05-07T01:10:15;98107.94;;;9.21;100.00
76746;BME280;65671;49.976;20.038;2023-05-07T01:12:42;98111.03;;;9.26;100.00
76746;BME280;65671;49.976;20.038;2023-05-07T01:15:09;98118.00;;;9.31;100.00
76746;BME280;65671;49.976;20.038;2023-05-07T01:17:36;98107.25;;;9.41;100.00
76746;BME280;65671;49.976;20.038;2023-05-07T01:20:02;98116.41;;;9.23;100.00
76746;BME280;65671;49.976;20.038;2023-05-07T01:22:32;98115.28;;;9.27;100.00
76746;BME280;65671;49.976;20.038;2023-05-07T01:24:59;98110.25;;;9.26;100.00
76746;BME280;65671;49.976;20.038;2023-05-07T01:27:27;98108.31;;;9.23;100.00
76746;BME280;65671;49.976;20.038;2023-05-07T01:29:53;98107.53;;;9.22;100.00
76746;BME280;65671;49.976;20.038;2023-05-07T01:32:23;98105.97;;;9.21;100.00
76746;BME280;65671;49.976;20.038;2023-05-07T01:34:51;98114.41;;;9.06;100.00
76746;BME280;65671;49.976;20.038;2023-05-07T01:37:18;98117.13;;;9.09;100.00
76746;BME280;65671;49.976;20.038;2023-05-07T01:39:43;98117.91;;;9.06;100.00
76746;BME280;65671;49.976;20.038;2023-05-07T01:42:09;98121.78;;;9.12;100.00
76746;BME280;65671;49.976;20.038;2023-05-07T01:44:35;98116.34;;;9.05;100.00
76746;BME280;65671;49.976;20.038;2023-05-07T01:47:02;98123.25;;;8.99;100.00
76746;BME280;65671;49.976;20.038;2023-05-07T01:49:28;98120.97;;;9.05;100.00
76746;BME280;65671;49.976;20.038;2023-05-07T01:51:54;98130.63;;;9.06;100.00
76746;BME280;65671;49.976;20.038;2023-05-07T01:54:28;98125.78;;;8.71;100.00
76746;BME280;65671;49.976;20.038;2023-05-07T01:56:56;98125.06;;;8.81;100.00
76746;BME280;65671;49.976;20.038;2023-05-07T01:59:22;98122.28;;;8.70;100.00
76746;BME280;65671;49.976;20.038;2023-05-07T02:01:47;98126.81;;;8.59;100.00
76746;BME280;65671;49.976;20.038;2023-05-07T02:04:13;98125.28;;;8.58;100.00
76746;BME280;65671;49.976;20.038;2023-05-07T02:06:38;98124.13;;;8.59;100.00
76746;BME280;65671;49.976;20.038;2023-05-07T02:09:04;98125.28;;;8.58;100.00
76746;BME280;65671;49.976;20.038;2023-05-07T02:11:30;98122.09;;;8.46;100.00
76746;BME280;65671;49.976;20.038;2023-05-07T02:13:55;98129.06;;;8.47;100.00
76746;BME280;65671;49.976;20.038;2023-05-07T02:16:21;98134.47;;;8.47;100.00
76746;BME280;65671;49.976;20.038;2023-05-07T02:18:48;98133.56;;;8.32;100.00
76746;BME280;65671;49.976;20.038;2023-05-07T02:21:13;98128.47;;;8.27;100.00
76746;BME280;65671;49.976;20.038;2023-05-07T02:23:39;98128.13;;;8.28;100.00
76746;BME280;65671;49.976;20.038;2023-05-07T02:26:04;98123.59;;;8.39;100.00
76746;BME280;65671;49.976;20.038;2023-05-07T02:28:30;98131.31;;;8.37;100.00
76746;BME280;65671;49.976;20.038;2023-05-07T02:30:56;98134.34;;;8.36;100.00
76746;BME280;65671;49.976;20.038;2023-05-07T02:33:23;98140.78;;;8.24;100.00
76746;BME280;65671;49.976;20.038;2023-05-07T02:35:49;98149.88;;;8.09;100.00
76746;BME280;65671;49.976;20.038;2023-05-07T02:38:17;98145.22;;;8.06;100.00
76746;BME280;65671;49.976;20.038;2023-05-07T02:40:43;98145.97;;;8.03;100.00
76746;BME280;65671;49.976;20.038;2023-05-07T02:43:09;98148.34;;;8.08;100.00
76746;BME280;65671;49.976;20.038;2023-05-07T02:45:35;98138.66;;;8.04;100.00
76746;BME280;65671;49.976;20.038;2023-05-07T02:48:01;98141.75;;;8.02;100.00
76746;BME280;65671;49.976;20.038;2023-05-07T02:50:26;98148.16;;;7.91;100.00
76746;BME280;65671;49.976;20.038;2023-05-07T02:52:52;98145.53;;;7.98;100.00
76746;BME280;65671;49.976;20.038;2023-05-07T02:55:17;98147.81;;;7.96;100.00
76746;BME280;65671;49.976;20.038;2023-05-07T02:57:43;98145.91;;;7.96;100.00
76746;BME280;65671;49.976;20.038;2023-05-07T03:00:13;98155.13;;;7.95;100.00
76746;BME280;65671;49.976;20.038;2023-05-07T03:02:39;98149.09;;;8.05;100.00
76746;BME280;65671;49.976;20.038;2023-05-07T03:05:06;98160.19;;;7.97;100.00
76746;BME280;65671;49.976;20.038;2023-05-07T03:07:31;98144.84;;;8.04;100.00
76746;BME280;65671;49.976;20.038;2023-05-07T03:09:57;98160.22;;;8.04;100.00
76746;BME280;65671;49.976;20.038;2023-05-07T03:12:22;98153.91;;;7.89;100.00
76746;BME280;65671;49.976;20.038;2023-05-07T03:14:47;98162.13;;;8.00;100.00
76746;BME280;65671;49.976;20.038;2023-05-07T03:17:13;98167.75;;;7.84;100.00
76746;BME280;65671;49.976;20.038;2023-05-07T03:19:38;98163.09;;;7.81;100.00
76746;BME280;65671;49.976;20.038;2023-05-07T03:22:04;98166.84;;;7.73;100.00
76746;BME280;65671;49.976;20.038;2023-05-07T03:24:30;98173.88;;;7.81;100.00
76746;BME280;65671;49.976;20.038;2023-05-07T03:26:56;98182.53;;;7.64;100.00
76746;BME280;65671;49.976;20.038;2023-05-07T03:29:23;98181.78;;;7.67;100.00
76746;BME280;65671;49.976;20.038;2023-05-07T03:31:48;98175.06;;;7.54;100.00
76746;BME280;65671;49.976;20.038;2023-05-07T03:34:14;98175.25;;;7.68;100.00
76746;BME280;65671;49.976;20.038;2023-05-07T03:36:42;98181.84;;;7.70;100.00
76746;BME280;65671;49.976;20.038;2023-05-07T03:39:08;98185.84;;;7.54;100.00
76746;BME280;65671;49.976;20.038;2023-05-07T03:41:33;98187.09;;;7.60;100.00
76746;BME280;65671;49.976;20.038;2023-05-07T03:43:59;98186.69;;;7.58;100.00
76746;BME280;65671;49.976;20.038;2023-05-07T03:46:24;98190.91;;;7.59;100.00
76746;BME280;65671;49.976;20.038;2023-05-07T03:48:51;98191.53;;;7.45;100.00
76746;BME280;65671;49.976;20.038;2023-05-07T03:51:18;98204.31;;;7.52;100.00
76746;BME280;65671;49.976;20.038;2023-05-07T03:53:43;98208.75;;;7.37;100.00
76746;BME280;65671;49.976;20.038;2023-05-07T03:56:09;98207.13;;;7.32;100.00
76746;BME280;65671;49.976;20.038;2023-05-07T03:58:34;98211.03;;;7.35;100.00
76746;BME280;65671;49.976;20.038;2023-05-07T04:01:00;98207.56;;;7.35;100.00
76746;BME280;65671;49.976;20.038;2023-05-07T04:03:26;98211.78;;;7.36;100.00
76746;BME280;65671;49.976;20.038;2023-05-07T04:05:51;98214.53;;;7.39;100.00
76746;BME280;65671;49.976;20.038;2023-05-07T04:08:17;98211.06;;;7.39;100.00
76746;BME280;65671;49.976;20.038;2023-05-07T04:10:42;98202.47;;;7.29;100.00
76746;BME280;65671;49.976;20.038;2023-05-07T04:13:08;98215.53;;;7.27;100.00
76746;BME280;65671;49.976;20.038;2023-05-07T04:15:35;98223.44;;;7.43;100.00
76746;BME280;65671;49.976;20.038;2023-05-07T04:18:01;98224.56;;;7.42;100.00
76746;BME280;65671;49.976;20.038;2023-05-07T04:20:27;98229.63;;;7.44;100.00
76746;BME280;65671;49.976;20.038;2023-05-07T04:22:52;98228.38;;;7.38;100.00
76746;BME280;65671;49.976;20.038;2023-05-07T04:25:18;98232.38;;;7.51;100.00
76746;BME280;65671;49.976;20.038;2023-05-07T04:27:43;98217.09;;;7.58;100.00
76746;BME280;65671;49.976;20.038;2023-05-07T04:30:10;98228.41;;;7.41;100.00
76746;BME280;65671;49.976;20.038;2023-05-07T04:32:35;98227.88;;;7.28;100.00
76746;BME280;65671;49.976;20.038;2023-05-07T04:35:02;98227.66;;;7.14;100.00
76746;BME280;65671;49.976;20.038;2023-05-07T04:37:28;98234.69;;;7.22;100.00
76746;BME280;65671;49.976;20.038;2023-05-07T04:39:54;98236.88;;;7.13;100.00
76746;BME280;65671;49.976;20.038;2023-05-07T04:42:19;98245.53;;;7.26;100.00
76746;BME280;65671;49.976;20.038;2023-05-07T04:44:45;98245.34;;;7.15;100.00
76746;BME280;65671;49.976;20.038;2023-05-07T04:47:11;98250.53;;;7.27;100.00
76746;BME280;65671;49.976;20.038;2023-05-07T04:49:38;98248.47;;;7.17;100.00
76746;BME280;65671;49.976;20.038;2023-05-07T04:52:04;98249.56;;;7.13;100.00
76746;BME280;65671;49.976;20.038;2023-05-07T04:54:29;98254.00;;;7.02;100.00
76746;BME280;65671;49.976;20.038;2023-05-07T04:56:55;98253.69;;;7.07;100.00
76746;BME280;65671;49.976;20.038;2023-05-07T04:59:21;98260.31;;;7.13;100.00
76746;BME280;65671;49.976;20.038;2023-05-07T05:01:47;98260.91;;;6.99;100.00
76746;BME280;65671;49.976;20.038;2023-05-07T05:04:13;98263.47;;;6.92;100.00
76746;BME280;65671;49.976;20.038;2023-05-07T05:06:38;98262.91;;;7.06;100.00
76746;BME280;65671;49.976;20.038;2023-05-07T05:09:04;98268.66;;;7.04;100.00
76746;BME280;65671;49.976;20.038;2023-05-07T05:11:30;98269.84;;;7.07;100.00
76746;BME280;65671;49.976;20.038;2023-05-07T05:13:56;98272.13;;;7.05;100.00
76746;BME280;65671;49.976;20.038;2023-05-07T05:16:21;98271.00;;;6.83;100.00
76746;BME280;65671;49.976;20.038;2023-05-07T05:18:47;98277.28;;;6.91;100.00
76746;BME280;65671;49.976;20.038;2023-05-07T05:21:12;98285.31;;;6.87;100.00
76746;BME280;65671;49.976;20.038;2023-05-07T05:23:39;98286.13;;;6.91;100.00
76746;BME280;65671;49.976;20.038;2023-05-07T05:26:04;98284.59;;;6.90;100.00
76746;BME280;65671;49.976;20.038;2023-05-07T05:28:30;98276.56;;;6.94;100.00
76746;BME280;65671;49.976;20.038;2023-05-07T05:30:55;98283.28;;;6.81;100.00
76746;BME280;65671;49.976;20.038;2023-05-07T05:33:21;98284.88;;;6.85;100.00
76746;BME280;65671;49.976;20.038;2023-05-07T05:35:46;98289.38;;;6.78;100.00
76746;BME280;65671;49.976;20.038;2023-05-07T05:38:12;98292.84;;;6.78;100.00
76746;BME280;65671;49.976;20.038;2023-05-07T05:40:38;98297.78;;;6.76;100.00
76746;BME280;65671;49.976;20.038;2023-05-07T05:43:03;98297.97;;;6.64;100.00
76746;BME280;65671;49.976;20.038;2023-05-07T05:45:29;98297.69;;;6.69;100.00
76746;BME280;65671;49.976;20.038;2023-05-07T05:47:56;98307.00;;;6.75;100.00
76746;BME280;65671;49.976;20.038;2023-05-07T05:50:21;98301.38;;;6.84;100.00
76746;BME280;65671;49.976;20.038;2023-05-07T05:52:47;98311.63;;;6.74;100.00
76746;BME280;65671;49.976;20.038;2023-05-07T05:55:13;98316.44;;;6.65;100.00
76746;BME280;65671;49.976;20.038;2023-05-07T05:57:38;98319.22;;;6.69;100.00
76746;BME280;65671;49.976;20.038;2023-05-07T06:00:05;98320.00;;;6.69;100.00
76746;BME280;65671;49.976;20.038;2023-05-07T06:02:31;98323.03;;;6.68;100.00
76746;BME280;65671;49.976;20.038;2023-05-07T06:04:57;98329.66;;;6.74;100.00
76746;BME280;65671;49.976;20.038;2023-05-07T06:07:22;98326.25;;;6.54;100.00
76746;BME280;65671;49.976;20.038;2023-05-07T06:09:48;98327.03;;;6.55;100.00
76746;BME280;65671;49.976;20.038;2023-05-07T06:12:13;98325.88;;;6.56;100.00
76746;BME280;65671;49.976;20.038;2023-05-07T06:14:39;98332.41;;;6.36;100.00
76746;BME280;65671;49.976;20.038;2023-05-07T06:17:06;98333.50;;;6.31;100.00
76746;BME280;65671;49.976;20.038;2023-05-07T06:19:32;98339.84;;;6.42;100.00
76746;BME280;65671;49.976;20.038;2023-05-07T06:21:58;98338.91;;;6.54;100.00
76746;BME280;65671;49.976;20.038;2023-05-07T06:24:24;98358.19;;;6.37;100.00
76746;BME280;65671;49.976;20.038;2023-05-07T06:26:49;98352.78;;;6.17;100.00
76746;BME280;65671;49.976;20.038;2023-05-07T06:29:15;98347.28;;;6.10;100.00
76746;BME280;65671;49.976;20.038;2023-05-07T06:31:40;98349.59;;;6.12;100.00
76746;BME280;65671;49.976;20.038;2023-05-07T06:34:07;98355.25;;;6.26;100.00
76746;BME280;65671;49.976;20.038;2023-05-07T06:36:33;98354.78;;;6.21;100.00
76746;BME280;65671;49.976;20.038;2023-05-07T06:38:59;98351.88;;;6.10;100.00
76746;BME280;65671;49.976;20.038;2023-05-07T06:41:25;98350.69;;;6.07;100.00
76746;BME280;65671;49.976;20.038;2023-05-07T06:43:51;98350.47;;;6.16;100.00
76746;BME280;65671;49.976;20.038;2023-05-07T06:46:16;98352.66;;;6.10;100.00
76746;BME280;65671;49.976;20.038;2023-05-07T06:48:42;98357.75;;;6.15;100.00
76746;BME280;65671;49.976;20.038;2023-05-07T06:51:07;98359.03;;;6.22;100.00
76746;BME280;65671;49.976;20.038;2023-05-07T06:53:32;98364.25;;;6.14;100.00
76746;BME280;65671;49.976;20.038;2023-05-07T06:55:59;98362.91;;;6.24;100.00
76746;BME280;65671;49.976;20.038;2023-05-07T06:58:25;98361.44;;;6.27;100.00
76746;BME280;65671;49.976;20.038;2023-05-07T07:00:50;98365.44;;;6.17;100.00
76746;BME280;65671;49.976;20.038;2023-05-07T07:03:16;98368.44;;;6.31;100.00
76746;BME280;65671;49.976;20.038;2023-05-07T07:05:41;98371.13;;;6.50;100.00
76746;BME280;65671;49.976;20.038;2023-05-07T07:08:07;98377.41;;;6.39;100.00
76746;BME280;65671;49.976;20.038;2023-05-07T07:10:33;98373.66;;;6.24;100.00
76746;BME280;65671;49.976;20.038;2023-05-07T07:12:58;98380.25;;;6.27;100.00
76746;BME280;65671;49.976;20.038;2023-05-07T07:15:26;98377.34;;;6.35;100.00
76746;BME280;65671;49.976;20.038;2023-05-07T07:17:52;98387.34;;;6.35;100.00
76746;BME280;65671;49.976;20.038;2023-05-07T07:20:17;98389.66;;;6.36;100.00
76746;BME280;65671;49.976;20.038;2023-05-07T07:22:43;98395.91;;;6.40;100.00
76746;BME280;65671;49.976;20.038;2023-05-07T07:25:09;98400.44;;;6.36;100.00
76746;BME280;65671;49.976;20.038;2023-05-07T07:27:35;98400.22;;;6.26;100.00
76746;BME280;65671;49.976;20.038;2023-05-07T07:30:01;98404.72;;;6.22;100.00
76746;BME280;65671;49.976;20.038;2023-05-07T07:32:26;98410.97;;;6.26;100.00
76746;BME280;65671;49.976;20.038;2023-05-07T07:34:52;98407.72;;;6.36;100.00
76746;BME280;65671;49.976;20.038;2023-05-07T07:37:18;98415.38;;;6.34;100.00
76746;BME280;65671;49.976;20.038;2023-05-07T07:39:43;98418.19;;;6.41;100.00
76746;BME280;65671;49.976;20.038;2023-05-07T07:42:09;98422.00;;;6.21;100.00
76746;BME280;65671;49.976;20.038;2023-05-07T07:44:34;98418.69;;;6.27;100.00
76746;BME280;65671;49.976;20.038;2023-05-07T07:47:00;98427.28;;;6.52;100.00
76746;BME280;65671;49.976;20.038;2023-05-07T07:49:26;98429.59;;;6.53;100.00
76746;BME280;65671;49.976;20.038;2023-05-07T07:51:52;98424.78;;;6.62;100.00
76746;BME280;65671;49.976;20.038;2023-05-07T07:54:18;98432.56;;;6.48;100.00
76746;BME280;65671;49.976;20.038;2023-05-07T07:56:43;98434.97;;;6.53;100.00
76746;BME280;65671;49.976;20.038;2023-05-07T07:59:09;98428.94;;;6.41;100.00
76746;BME280;65671;49.976;20.038;2023-05-07T08:01:34;98425.34;;;6.33;100.00
76746;BME280;65671;49.976;20.038;2023-05-07T08:04:00;98428.31;;;6.47;100.00
76746;BME280;65671;49.976;20.038;2023-05-07T08:06:28;98432.41;;;6.41;100.00
76746;BME280;65671;49.976;20.038;2023-05-07T08:08:53;98436.75;;;6.46;100.00
76746;BME280;65671;49.976;20.038;2023-05-07T08:11:19;98445.25;;;6.48;100.00
76746;BME280;65671;49.976;20.038;2023-05-07T08:13:46;98445.44;;;6.39;100.00
76746;BME280;65671;49.976;20.038;2023-05-07T08:16:12;98447.72;;;6.37;100.00
76746;BME280;65671;49.976;20.038;2023-05-07T08:18:38;98463.19;;;6.25;100.00
76746;BME280;65671;49.976;20.038;2023-05-07T08:21:03;98464.38;;;6.27;100.00
76746;BME280;65671;49.976;20.038;2023-05-07T08:23:29;98462.41;;;6.24;100.00
76746;BME280;65671;49.976;20.038;2023-05-07T08:25:55;98461.28;;;6.25;100.00
76746;BME280;65671;49.976;20.038;2023-05-07T08:28:21;98459.53;;;6.17;100.00
76746;BME280;65671;49.976;20.038;2023-05-07T08:30:47;98471.09;;;6.17;100.00
76746;BME280;65671;49.976;20.038;2023-05-07T08:33:13;98473.53;;;6.23;100.00
76746;BME280;65671;49.976;20.038;2023-05-07T08:35:39;98473.28;;;6.12;100.00
76746;BME280;65671;49.976;20.038;2023-05-07T08:38:04;98479.22;;;6.21;100.00
76746;BME280;65671;49.976;20.038;2023-05-07T08:40:38;98491.25;;;6.08;100.00
76746;BME280;65671;49.976;20.038;2023-05-07T08:43:06;98484.09;;;6.15;100.00
76746;BME280;65671;49.976;20.038;2023-05-07T08:45:33;98481.81;;;5.98;100.00
76746;BME280;65671;49.976;20.038;2023-05-07T08:48:01;98483.00;;;6.01;100.00
76746;BME280;65671;49.976;20.038;2023-05-07T08:50:27;98490.72;;;6.02;100.00
76746;BME280;65671;49.976;20.038;2023-05-07T08:52:54;98497.28;;;6.21;100.00
76746;BME280;65671;49.976;20.038;2023-05-07T08:55:20;98495.66;;;6.00;100.00
76746;BME280;65671;49.976;20.038;2023-05-07T08:57:45;98496.25;;;6.09;100.00
76746;BME280;65671;49.976;20.038;2023-05-07T09:00:12;98502.34;;;6.06;100.00
76746;BME280;65671;49.976;20.038;2023-05-07T09:02:38;98501.81;;;6.16;100.00
76746;BME280;65671;49.976;20.038;2023-05-07T09:05:04;98498.25;;;6.47;100.00
76746;BME280;65671;49.976;20.038;2023-05-07T09:07:31;98496.66;;;6.27;100.00
76746;BME280;65671;49.976;20.038;2023-05-07T09:09:56;98507.63;;;6.03;100.00
76746;BME280;65671;49.976;20.038;2023-05-07T09:12:23;98502.84;;;5.96;100.00
76746;BME280;65671;49.976;20.038;2023-05-07T09:14:49;98503.72;;;6.00;100.00
76746;BME280;65671;49.976;20.038;2023-05-07T09:17:16;98509.00;;;6.12;100.00
76746;BME280;65671;49.976;20.038;2023-05-07T09:19:44;98508.72;;;6.17;100.00
76746;BME280;65671;49.976;20.038;2023-05-07T09:22:10;98515.41;;;6.24;99.55
76746;BME280;65671;49.976;20.038;2023-05-07T09:24:37;98525.25;;;6.35;99.79
76746;BME280;65671;49.976;20.038;2023-05-07T09:27:06;98523.28;;;6.32;98.97
76746;BME280;65671;49.976;20.038;2023-05-07T09:29:33;98535.88;;;6.12;100.00
76746;BME280;65671;49.976;20.038;2023-05-07T09:32:02;98525.31;;;6.04;100.00
76746;BME280;65671;49.976;20.038;2023-05-07T09:34:29;98537.88;;;6.15;100.00
76746;BME280;65671;49.976;20.038;2023-05-07T09:36:55;98538.16;;;6.10;100.00
76746;BME280;65671;49.976;20.038;2023-05-07T09:39:23;98536.16;;;6.07;100.00
76746;BME280;65671;49.976;20.038;2023-05-07T09:41:49;98541.69;;;6.14;100.00
76746;BME280;65671;49.976;20.038;2023-05-07T09:44:15;98541.78;;;6.18;100.00
76746;BME280;65671;49.976;20.038;2023-05-07T09:46:43;98538.38;;;6.21;100.00
76746;BME280;65671;49.976;20.038;2023-05-07T09:49:12;98545.06;;;6.11;99.63
76746;BME280;65671;49.976;20.038;2023-05-07T09:51:49;98548.38;;;6.21;99.03
76746;BME280;65671;49.976;20.038;2023-05-07T09:54:16;98551.22;;;6.28;99.15
76746;BME280;65671;49.976;20.038;2023-05-07T09:56:43;98555.53;;;6.32;97.75
76746;BME280;65671;49.976;20.038;2023-05-07T09:59:12;98550.03;;;6.25;98.81
76746;BME280;65671;49.976;20.038;2023-05-07T10:01:40;98550.44;;;6.27;99.17
76746;BME280;65671;49.976;20.038;2023-05-07T10:04:06;98557.72;;;6.42;98.83
76746;BME280;65671;49.976;20.038;2023-05-07T10:06:35;98565.38;;;6.25;98.87
76746;BME280;65671;49.976;20.038;2023-05-07T10:09:02;98562.31;;;6.42;98.44
76746;BME280;65671;49.976;20.038;2023-05-07T10:11:28;98567.53;;;6.35;99.21
76746;BME280;65671;49.976;20.038;2023-05-07T10:13:54;98562.25;;;6.23;99.26
76746;BME280;65671;49.976;20.038;2023-05-07T10:16:23;98559.56;;;6.23;99.60
76746;BME280;65671;49.976;20.038;2023-05-07T10:18:50;98569.88;;;6.36;99.29
76746;BME280;65671;49.976;20.038;2023-05-07T10:21:22;98571.72;;;6.16;99.84
76746;BME280;65671;49.976;20.038;2023-05-07T10:24:00;98579.97;;;6.08;99.42
76746;BME280;65671;49.976;20.038;2023-05-07T10:26:32;98581.69;;;6.32;99.80
76746;BME280;65671;49.976;20.038;2023-05-07T10:29:03;98580.19;;;6.34;98.71
76746;BME280;65671;49.976;20.038;2023-05-07T10:34:08;98584.88;;;6.22;100.00
76746;BME280;65671;49.976;20.038;2023-05-07T10:36:35;98588.69;;;6.21;99.34
76746;BME280;65671;49.976;20.038;2023-05-07T10:39:02;98594.84;;;6.21;99.61
76746;BME280;65671;49.976;20.038;2023-05-07T10:41:27;98598.25;;;6.18;100.00
76746;BME280;65671;49.976;20.038;2023-05-07T10:43:53;98598.41;;;6.09;98.87
76746;BME280;65671;49.976;20.038;2023-05-07T10:46:20;98604.03;;;6.20;99.81
76746;BME280;65671;49.976;20.038;2023-05-07T10:51:29;98592.53;;;6.20;97.83
76746;BME280;65671;49.976;20.038;2023-05-07T10:56:37;98592.06;;;6.33;96.58
76746;BME280;65671;49.976;20.038;2023-05-07T11:01:55;98606.22;;;6.46;98.17
76746;BME280;65671;49.976;20.038;2023-05-07T11:04:23;98605.34;;;6.42;97.77
76746;BME280;65671;49.976;20.038;2023-05-07T11:15:09;98611.59;;;6.46;97.09
76746;BME280;65671;49.976;20.038;2023-05-07T11:17:52;98610.53;;;6.50;98.74
76746;BME280;65671;49.976;20.038;2023-05-07T11:20:18;98608.31;;;6.37;96.66
76746;BME280;65671;49.976;20.038;2023-05-07T11:22:44;98615.41;;;6.45;97.45
76746;BME280;65671;49.976;20.038;2023-05-07T11:25:10;98615.84;;;6.31;98.16
76746;BME280;65671;49.976;20.038;2023-05-07T11:27:42;98623.41;;;6.26;98.82
76746;BME280;65671;49.976;20.038;2023-05-07T11:30:09;98619.16;;;5.93;98.64
76746;BME280;65671;49.976;20.038;2023-05-07T11:32:35;98621.72;;;6.05;98.42
76746;BME280;65671;49.976;20.038;2023-05-07T11:35:00;98625.41;;;6.13;98.58
76746;BME280;65671;49.976;20.038;2023-05-07T11:37:27;98625.81;;;6.15;97.92
76746;BME280;65671;49.976;20.038;2023-05-07T11:40:06;98624.34;;;6.17;98.09
76746;BME280;65671;49.976;20.038;2023-05-07T11:42:37;98618.97;;;6.17;97.83
76746;BME280;65671;49.976;20.038;2023-05-07T11:45:03;98629.81;;;6.21;97.74
76746;BME280;65671;49.976;20.038;2023-05-07T11:47:31;98637.25;;;6.12;97.92
76746;BME280;65671;49.976;20.038;2023-05-07T11:50:07;98633.72;;;6.24;97.66
76746;BME280;65671;49.976;20.038;2023-05-07T11:52:35;98638.75;;;6.09;97.84
76746;BME280;65671;49.976;20.038;2023-05-07T11:55:02;98636.66;;;6.03;98.60
76746;BME280;65671;49.976;20.038;2023-05-07T11:57:29;98646.38;;;6.23;97.91
76746;BME280;65671;49.976;20.038;2023-05-07T11:59:59;98643.00;;;6.26;96.92
76746;BME280;65671;49.976;20.038;2023-05-07T12:02:26;98649.69;;;6.48;96.69
76746;BME280;65671;49.976;20.038;2023-05-07T12:04:52;98641.78;;;6.55;96.99
76746;BME280;65671;49.976;20.038;2023-05-07T12:07:18;98646.47;;;6.42;94.55
76746;BME280;65671;49.976;20.038;2023-05-07T12:09:45;98648.22;;;6.35;95.23
76746;BME280;65671;49.976;20.038;2023-05-07T12:12:11;98651.50;;;6.44;95.15
76746;BME280;65671;49.976;20.038;2023-05-07T12:14:39;98651.94;;;6.30;95.58
76746;BME280;65671;49.976;20.038;2023-05-07T12:17:07;98652.81;;;6.34;95.81
76746;BME280;65671;49.976;20.038;2023-05-07T12:19:34;98650.03;;;6.31;95.61
76746;BME280;65671;49.976;20.038;2023-05-07T12:21:59;98648.31;;;6.23;95.42
76746;BME280;65671;49.976;20.038;2023-05-07T12:24:25;98653.59;;;6.19;96.03
76746;BME280;65671;49.976;20.038;2023-05-07T12:26:51;98667.03;;;6.19;96.05
76746;BME280;65671;49.976;20.038;2023-05-07T12:29:16;98657.81;;;6.20;95.82
76746;BME280;65671;49.976;20.038;2023-05-07T12:31:42;98659.31;;;6.33;94.27
76746;BME280;65671;49.976;20.038;2023-05-07T12:34:11;98661.50;;;6.43;94.05
76746;BME280;65671;49.976;20.038;2023-05-07T12:36:38;98664.69;;;6.49;93.80
76746;BME280;65671;49.976;20.038;2023-05-07T12:39:05;98645.50;;;6.66;93.09
76746;BME280;65671;49.976;20.038;2023-05-07T12:41:36;98659.13;;;6.73;92.86
76746;BME280;65671;49.976;20.038;2023-05-07T12:44:04;98651.13;;;6.77;92.84
76746;BME280;65671;49.976;20.038;2023-05-07T12:46:30;98657.19;;;6.73;92.93
76746;BME280;65671;49.976;20.038;2023-05-07T12:48:56;98661.97;;;6.64;92.70
76746;BME280;65671;49.976;20.038;2023-05-07T12:51:22;98660.72;;;6.43;92.75
76746;BME280;65671;49.976;20.038;2023-05-07T12:53:47;98670.16;;;6.37;94.33
76746;BME280;65671;49.976;20.038;2023-05-07T12:56:15;98666.78;;;6.40;94.51
76746;BME280;65671;49.976;20.038;2023-05-07T12:58:41;98675.47;;;6.49;93.74
76746;BME280;65671;49.976;20.038;2023-05-07T13:01:07;98670.41;;;6.47;93.04
76746;BME280;65671;49.976;20.038;2023-05-07T13:03:36;98672.50;;;6.38;92.67
76746;BME280;65671;49.976;20.038;2023-05-07T13:06:04;98671.09;;;6.44;92.64
76746;BME280;65671;49.976;20.038;2023-05-07T13:08:40;98667.63;;;6.44;92.64